Create Custom Reports and Graphics: Custom Report

Latest Observations

Map

15 Minute Data

Latest Observation

8 Stations

15 Minute Data | America/Los_Angeles
as of 3/25/19 3:09 AM PDT
Station Date Time Temp (°F) Dew Pt (°F) RH (%) Wind Spd (mph) Wind Dir (°) Wind Gust (mph) Latest Rain (In) Daily Rain (In) Daily Min Temp (°F) Daily Max Temp (°F) Day
Upper Lake (UPL) 3/25/19 0300 52.8   17.8 38.2   3.1 57   43 4.7 SE | 144 12.6   11.0 0.00 0.00 52.1   17.4 53.3   16.1 3/25/19
Scotts Valley (SVL) 3/25/19 0300 50.8   19.1 41.8   10.3 71   28 3.9 SSE | 150 10.6   9.3 0.00 0.00 50.7   19.3 51.3   17.6 3/25/19
Kelseyville (KEL) 3/25/19 0300 51.2   17.2 39.2   5.5 61   34 5.6 ESE | 107 12.1   9.2 0.00 0.00 47.9   14.1 52.8   14.5 3/25/19
Kelseyville Remote 3/25/19 0300 52.3   17.6 37.4   4.6 57   36 - - - - - 48.6   14.0 52.4   14.8 3/25/19
Kelseyville South (SML) 3/25/19 0300 51.1   16.2 42.5   8.1 72   26 7.1 SE | 126 11.8   9.4 0.00 0.00 50.1   15.3 51.6   13.5 3/25/19
Bell Hill West (BHR) 3/25/19 0300 50.3   15.8 41.3   6.7 71   29 5.7 E | 85 9.6   6.0 0.00 0.00 49.4   15.2 50.9   14.1 3/25/19
Wight Way 3/25/19 0300 49.6   17.0 41.2   8.6 73   27 6.7 E | 92 12.7   10.8 0.00 0.00 47.5   15.2 50.0   15.2 3/25/19
Red Hills East (2200ft) 3/25/19 0300 45.8   9.9 40.8   5.5 83   15 5.6 SE | 132 10.0   6.4 0.00 0.00 45.1   10.5 46.2   9.6 3/25/19

Lake County - South

Latest Observations

15 Minute Data | America/Los_Angeles
as of 3/25/19 3:09 AM PDT
Station Date Time Temp (°F) Dew Pt (°F) RH (%) Wind Spd (mph) Wind Dir (°) Wind Gust (mph) Latest Rain (In) Daily Rain (In) Daily Min Temp (°F) Daily Max Temp (°F) Day
High Valley Ridgeline (Brassfield) 3/24/19 1015 47.5   4.4 40.1   3.0 75   25 11.1 ENE | 72 15.4   5.7 0.00 0.00 38.6   1.6 48.0   2.1 3/24/19
Ridgeline Top (Brassfield) 3/24/19 1015 47.3   3.7 - - - - - - - 39.1   1.2 48.0   2.0 3/24/19
Ridgeline Low (Brassfield) 3/24/19 1015 49.1   3.3 - - - - - - - 36.7   5.3 49.6   2.7 3/24/19
High Valley Winery 3/24/19 1015 51.2   2.8 41.7   0.9 70   10 2.7 SE | 124 5.6   6.9 0.00 0.00 32.0   10.1 52.0   3.3 3/24/19
Bella Vista-Middletown West 3/25/19 0300 46.3   11.2 43.4   8.6 89   9 - - - - - 45.8   11.1 48.6   10.3 3/25/19
Middletown-South 3/25/19 0300 46.4   10.9 44.1   9.0 91   8 0.5 SE | 125 2.6   0.2 0.00 0.00 43.8   9.7 48.9   9.8 3/25/19
Lower Bohn 3/25/19 0300 49.8   12.7 44.4   7.6 82   17 1.0 NW | 319 3.0   2.3 0.00 0.00 47.9   11.5 50.2   10.7 3/25/19
Upper Bohn North 3/25/19 0300 49.9   11.2 42.6   5.3 76   19 2.3 SSE | 162 3.7   2.0 0.00 0.00 48.7   10.9 50.2   8.8 3/25/19
Upper Bohn South 3/25/19 0300 49.1   9.1 42.1   7.5 77   4 1.6 SE | 126 3.3   0.4 0.00 0.00 48.8   9.5 49.5   5.9 3/25/19
Morgan Valley (HSM) 3/21/19 1630 53.9   6.3 31.8   7.7 43   30 7.1 W | 276 13.6   4.3 0.00 0.00 36.4   5.2 54.7   6.5 3/21/19
Mine Pit North 3/25/19 0300 50.1   10.1 39.4   2.8 67   21 0.1 E | 98 4.6   4.6 - - 49.5   10.3 50.7   8.2 3/25/19
Mine Pit South 3/25/19 0300 - - 81   11 2.7 ESE | 104 5.9   2.4 0.00 0.00 - - 3/25/19